sensor_id;sensor_type;location;lat;lon;timestamp;P1;durP1;ratioP1;P2;durP2;ratioP2
21488;SDS011;10906;45.194;5.684;2022-08-05T05:00:12;7.65;;;4.22;;
21488;SDS011;10906;45.194;5.684;2022-08-05T05:02:57;6.75;;;4.22;;
21488;SDS011;10906;45.194;5.684;2022-08-05T05:05:41;4.55;;;4.13;;
21488;SDS011;10906;45.194;5.684;2022-08-05T05:08:26;5.40;;;4.60;;
21488;SDS011;10906;45.194;5.684;2022-08-05T05:11:10;10.90;;;4.28;;
21488;SDS011;10906;45.194;5.684;2022-08-05T05:13:54;8.32;;;5.43;;
21488;SDS011;10906;45.194;5.684;2022-08-05T05:16:38;9.75;;;4.57;;
21488;SDS011;10906;45.194;5.684;2022-08-05T05:19:22;6.07;;;4.60;;
21488;SDS011;10906;45.194;5.684;2022-08-05T05:22:07;6.40;;;4.22;;
21488;SDS011;10906;45.194;5.684;2022-08-05T05:24:52;5.68;;;4.50;;
21488;SDS011;10906;45.194;5.684;2022-08-05T05:27:37;4.57;;;4.18;;
21488;SDS011;10906;45.194;5.684;2022-08-05T05:30:22;5.78;;;4.22;;
21488;SDS011;10906;45.194;5.684;2022-08-05T05:33:07;7.82;;;4.25;;
21488;SDS011;10906;45.194;5.684;2022-08-05T05:35:51;6.20;;;4.70;;
21488;SDS011;10906;45.194;5.684;2022-08-05T05:38:36;9.68;;;4.60;;
21488;SDS011;10906;45.194;5.684;2022-08-05T05:41:20;7.28;;;4.15;;
21488;SDS011;10906;45.194;5.684;2022-08-05T05:44:05;9.93;;;5.07;;
21488;SDS011;10906;45.194;5.684;2022-08-05T05:46:49;9.35;;;4.63;;
21488;SDS011;10906;45.194;5.684;2022-08-05T05:49:33;6.90;;;4.85;;
21488;SDS011;10906;45.194;5.684;2022-08-05T05:52:18;8.77;;;4.70;;
21488;SDS011;10906;45.194;5.684;2022-08-05T05:55:03;11.00;;;4.80;;
21488;SDS011;10906;45.194;5.684;2022-08-05T05:57:49;9.65;;;4.35;;
21488;SDS011;10906;45.194;5.684;2022-08-05T06:00:33;14.45;;;4.70;;
21488;SDS011;10906;45.194;5.684;2022-08-05T06:03:17;9.23;;;5.03;;
21488;SDS011;10906;45.194;5.684;2022-08-05T06:06:01;11.07;;;4.88;;
21488;SDS011;10906;45.194;5.684;2022-08-05T06:08:48;8.57;;;5.28;;
21488;SDS011;10906;45.194;5.684;2022-08-05T06:11:33;8.60;;;4.72;;
21488;SDS011;10906;45.194;5.684;2022-08-05T06:14:17;15.43;;;5.20;;
21488;SDS011;10906;45.194;5.684;2022-08-05T06:17:01;10.10;;;4.68;;
21488;SDS011;10906;45.194;5.684;2022-08-05T06:19:45;8.60;;;4.85;;
21488;SDS011;10906;45.194;5.684;2022-08-05T06:22:31;10.07;;;4.55;;
21488;SDS011;10906;45.194;5.684;2022-08-05T06:25:17;5.63;;;4.70;;
21488;SDS011;10906;45.194;5.684;2022-08-05T06:28:01;11.07;;;5.07;;
21488;SDS011;10906;45.194;5.684;2022-08-05T06:30:46;8.38;;;5.20;;
21488;SDS011;10906;45.194;5.684;2022-08-05T06:33:30;12.05;;;5.00;;
21488;SDS011;10906;45.194;5.684;2022-08-05T06:36:14;8.35;;;4.60;;
21488;SDS011;10906;45.194;5.684;2022-08-05T06:38:59;14.40;;;5.32;;
21488;SDS011;10906;45.194;5.684;2022-08-05T06:41:43;11.38;;;5.20;;
21488;SDS011;10906;45.194;5.684;2022-08-05T06:44:28;11.55;;;4.90;;
21488;SDS011;10906;45.194;5.684;2022-08-05T06:47:12;10.60;;;4.38;;
21488;SDS011;10906;45.194;5.684;2022-08-05T06:49:56;8.13;;;4.18;;
21488;SDS011;10906;45.194;5.684;2022-08-05T06:52:41;7.03;;;4.50;;
21488;SDS011;10906;45.194;5.684;2022-08-05T06:55:25;7.57;;;4.97;;
21488;SDS011;10906;45.194;5.684;2022-08-05T06:58:09;10.60;;;4.65;;
21488;SDS011;10906;45.194;5.684;2022-08-05T07:00:53;11.55;;;4.50;;
21488;SDS011;10906;45.194;5.684;2022-08-05T07:03:40;10.43;;;4.50;;
21488;SDS011;10906;45.194;5.684;2022-08-05T07:06:24;8.65;;;4.18;;
21488;SDS011;10906;45.194;5.684;2022-08-05T07:09:08;19.88;;;4.85;;
21488;SDS011;10906;45.194;5.684;2022-08-05T07:11:52;10.40;;;4.45;;
21488;SDS011;10906;45.194;5.684;2022-08-05T07:14:38;11.45;;;4.63;;
21488;SDS011;10906;45.194;5.684;2022-08-05T07:17:41;12.23;;;3.90;;
21488;SDS011;10906;45.194;5.684;2022-08-05T07:20:25;11.50;;;4.38;;
21488;SDS011;10906;45.194;5.684;2022-08-05T07:23:10;10.32;;;5.07;;
21488;SDS011;10906;45.194;5.684;2022-08-05T07:25:55;6.43;;;4.70;;
21488;SDS011;10906;45.194;5.684;2022-08-05T07:28:39;9.38;;;4.13;;
21488;SDS011;10906;45.194;5.684;2022-08-05T07:31:24;11.05;;;4.38;;
21488;SDS011;10906;45.194;5.684;2022-08-05T07:34:08;10.77;;;4.40;;
21488;SDS011;10906;45.194;5.684;2022-08-05T07:36:52;14.00;;;4.95;;
21488;SDS011;10906;45.194;5.684;2022-08-05T07:39:37;15.70;;;4.15;;
21488;SDS011;10906;45.194;5.684;2022-08-05T07:42:21;8.90;;;4.18;;
21488;SDS011;10906;45.194;5.684;2022-08-05T07:45:05;21.38;;;4.57;;
21488;SDS011;10906;45.194;5.684;2022-08-05T07:47:50;10.98;;;4.25;;
21488;SDS011;10906;45.194;5.684;2022-08-05T07:50:35;17.67;;;4.57;;
21488;SDS011;10906;45.194;5.684;2022-08-05T07:53:20;15.75;;;4.70;;
21488;SDS011;10906;45.194;5.684;2022-08-05T07:56:04;13.70;;;4.57;;
21488;SDS011;10906;45.194;5.684;2022-08-05T07:58:49;14.85;;;3.70;;
21488;SDS011;10906;45.194;5.684;2022-08-05T08:01:33;8.80;;;4.50;;
21488;SDS011;10906;45.194;5.684;2022-08-05T08:04:17;11.95;;;4.80;;
21488;SDS011;10906;45.194;5.684;2022-08-05T08:07:02;15.35;;;4.78;;
21488;SDS011;10906;45.194;5.684;2022-08-05T08:09:46;11.95;;;4.05;;
21488;SDS011;10906;45.194;5.684;2022-08-05T08:12:30;10.43;;;4.80;;
21488;SDS011;10906;45.194;5.684;2022-08-05T08:15:14;10.57;;;4.10;;
21488;SDS011;10906;45.194;5.684;2022-08-05T08:17:59;12.32;;;4.57;;
21488;SDS011;10906;45.194;5.684;2022-08-05T08:20:43;13.55;;;4.43;;
21488;SDS011;10906;45.194;5.684;2022-08-05T08:23:27;9.98;;;4.90;;
21488;SDS011;10906;45.194;5.684;2022-08-05T08:26:12;11.30;;;4.40;;
21488;SDS011;10906;45.194;5.684;2022-08-05T08:28:59;6.85;;;4.40;;
21488;SDS011;10906;45.194;5.684;2022-08-05T08:31:44;9.55;;;4.47;;
21488;SDS011;10906;45.194;5.684;2022-08-05T08:34:28;13.90;;;4.47;;
21488;SDS011;10906;45.194;5.684;2022-08-05T08:37:12;12.68;;;4.43;;
21488;SDS011;10906;45.194;5.684;2022-08-05T08:39:56;12.18;;;5.00;;
21488;SDS011;10906;45.194;5.684;2022-08-05T08:42:43;12.45;;;4.07;;
21488;SDS011;10906;45.194;5.684;2022-08-05T08:45:30;9.35;;;4.30;;
21488;SDS011;10906;45.194;5.684;2022-08-05T08:48:16;12.98;;;4.28;;
21488;SDS011;10906;45.194;5.684;2022-08-05T08:51:03;8.13;;;3.85;;
21488;SDS011;10906;45.194;5.684;2022-08-05T08:53:47;8.65;;;4.65;;
21488;SDS011;10906;45.194;5.684;2022-08-05T08:56:32;11.55;;;4.25;;
21488;SDS011;10906;45.194;5.684;2022-08-05T08:59:18;11.98;;;4.30;;
21488;SDS011;10906;45.194;5.684;2022-08-05T09:02:04;15.18;;;4.68;;
21488;SDS011;10906;45.194;5.684;2022-08-05T09:04:49;16.60;;;4.40;;
21488;SDS011;10906;45.194;5.684;2022-08-05T09:07:34;12.82;;;5.15;;
21488;SDS011;10906;45.194;5.684;2022-08-05T09:10:19;16.13;;;4.22;;
21488;SDS011;10906;45.194;5.684;2022-08-05T09:13:04;14.52;;;4.65;;
21488;SDS011;10906;45.194;5.684;2022-08-05T09:15:49;11.93;;;4.57;;
21488;SDS011;10906;45.194;5.684;2022-08-05T09:18:34;15.50;;;4.57;;
21488;SDS011;10906;45.194;5.684;2022-08-05T09:21:19;9.63;;;4.60;;
21488;SDS011;10906;45.194;5.684;2022-08-05T09:24:06;14.57;;;4.38;;
21488;SDS011;10906;45.194;5.684;2022-08-05T09:26:52;15.63;;;4.72;;
21488;SDS011;10906;45.194;5.684;2022-08-05T09:29:41;13.35;;;4.55;;
21488;SDS011;10906;45.194;5.684;2022-08-05T09:32:36;8.75;;;3.78;;
21488;SDS011;10906;45.194;5.684;2022-08-05T09:35:21;10.40;;;3.60;;
21488;SDS011;10906;45.194;5.684;2022-08-05T09:38:06;5.43;;;3.80;;
21488;SDS011;10906;45.194;5.684;2022-08-05T09:40:50;9.00;;;4.00;;
21488;SDS011;10906;45.194;5.684;2022-08-05T09:43:37;6.88;;;4.63;;
21488;SDS011;10906;45.194;5.684;2022-08-05T09:46:23;7.88;;;4.40;;
21488;SDS011;10906;45.194;5.684;2022-08-05T09:49:21;13.32;;;4.63;;
21488;SDS011;10906;45.194;5.684;2022-08-05T09:55:14;8.18;;;4.55;;
21488;SDS011;10906;45.194;5.684;2022-08-05T09:57:58;7.05;;;4.38;;
21488;SDS011;10906;45.194;5.684;2022-08-05T10:00:59;5.72;;;4.40;;
21488;SDS011;10906;45.194;5.684;2022-08-05T10:06:40;7.03;;;3.53;;
21488;SDS011;10906;45.194;5.684;2022-08-05T10:09:35;9.73;;;3.40;;
21488;SDS011;10906;45.194;5.684;2022-08-05T10:12:20;5.38;;;2.60;;
21488;SDS011;10906;45.194;5.684;2022-08-05T10:20:56;4.15;;;2.50;;
21488;SDS011;10906;45.194;5.684;2022-08-05T10:23:45;4.78;;;2.28;;
21488;SDS011;10906;45.194;5.684;2022-08-05T10:26:30;8.30;;;2.83;;
21488;SDS011;10906;45.194;5.684;2022-08-05T10:29:15;6.88;;;2.40;;
21488;SDS011;10906;45.194;5.684;2022-08-05T10:32:00;5.13;;;2.50;;
21488;SDS011;10906;45.194;5.684;2022-08-05T10:34:45;7.60;;;2.38;;
21488;SDS011;10906;45.194;5.684;2022-08-05T10:37:31;5.95;;;2.83;;
21488;SDS011;10906;45.194;5.684;2022-08-05T10:40:36;5.00;;;2.78;;
21488;SDS011;10906;45.194;5.684;2022-08-05T10:49:30;7.47;;;3.40;;
21488;SDS011;10906;45.194;5.684;2022-08-05T10:52:19;9.52;;;3.15;;
21488;SDS011;10906;45.194;5.684;2022-08-05T10:55:22;9.15;;;3.40;;
21488;SDS011;10906;45.194;5.684;2022-08-05T10:58:08;6.18;;;2.80;;
21488;SDS011;10906;45.194;5.684;2022-08-05T11:00:54;5.57;;;3.22;;
21488;SDS011;10906;45.194;5.684;2022-08-05T11:07:02;8.65;;;3.10;;
21488;SDS011;10906;45.194;5.684;2022-08-05T11:09:52;7.68;;;3.03;;
21488;SDS011;10906;45.194;5.684;2022-08-05T11:15:30;9.15;;;2.97;;
21488;SDS011;10906;45.194;5.684;2022-08-05T11:18:27;5.47;;;2.85;;
21488;SDS011;10906;45.194;5.684;2022-08-05T11:21:31;5.18;;;3.22;;
21488;SDS011;10906;45.194;5.684;2022-08-05T11:36:15;3.83;;;3.40;;
21488;SDS011;10906;45.194;5.684;2022-08-05T11:39:01;7.28;;;3.35;;
21488;SDS011;10906;45.194;5.684;2022-08-05T11:41:50;6.13;;;3.47;;
21488;SDS011;10906;45.194;5.684;2022-08-05T11:44:35;9.73;;;3.00;;
21488;SDS011;10906;45.194;5.684;2022-08-05T11:47:23;7.95;;;3.28;;
21488;SDS011;10906;45.194;5.684;2022-08-05T11:50:08;5.60;;;3.15;;
21488;SDS011;10906;45.194;5.684;2022-08-05T11:52:53;6.13;;;2.97;;
21488;SDS011;10906;45.194;5.684;2022-08-05T11:55:40;7.40;;;3.08;;
21488;SDS011;10906;45.194;5.684;2022-08-05T11:58:37;9.73;;;3.30;;
21488;SDS011;10906;45.194;5.684;2022-08-05T12:01:25;10.90;;;3.60;;
21488;SDS011;10906;45.194;5.684;2022-08-05T12:04:09;9.15;;;3.40;;
21488;SDS011;10906;45.194;5.684;2022-08-05T12:06:54;9.75;;;3.17;;
21488;SDS011;10906;45.194;5.684;2022-08-05T12:09:42;8.48;;;3.22;;
21488;SDS011;10906;45.194;5.684;2022-08-05T12:12:31;4.97;;;3.00;;
21488;SDS011;10906;45.194;5.684;2022-08-05T12:15:19;6.05;;;3.17;;
21488;SDS011;10906;45.194;5.684;2022-08-05T12:18:04;6.13;;;3.08;;
21488;SDS011;10906;45.194;5.684;2022-08-05T12:20:49;6.15;;;3.17;;
21488;SDS011;10906;45.194;5.684;2022-08-05T12:23:35;5.82;;;3.30;;
21488;SDS011;10906;45.194;5.684;2022-08-05T12:26:20;8.00;;;3.15;;
21488;SDS011;10906;45.194;5.684;2022-08-05T12:29:05;5.70;;;3.22;;
21488;SDS011;10906;45.194;5.684;2022-08-05T12:31:56;9.50;;;3.17;;
21488;SDS011;10906;45.194;5.684;2022-08-05T12:34:42;4.25;;;3.00;;
21488;SDS011;10906;45.194;5.684;2022-08-05T12:37:26;5.70;;;2.55;;
21488;SDS011;10906;45.194;5.684;2022-08-05T12:40:12;5.20;;;2.80;;
21488;SDS011;10906;45.194;5.684;2022-08-05T12:42:58;3.50;;;3.20;;
21488;SDS011;10906;45.194;5.684;2022-08-05T12:45:55;4.22;;;3.03;;
21488;SDS011;10906;45.194;5.684;2022-08-05T12:48:39;9.00;;;3.00;;
21488;SDS011;10906;45.194;5.684;2022-08-05T12:51:24;3.88;;;2.97;;
21488;SDS011;10906;45.194;5.684;2022-08-05T12:54:10;6.00;;;2.97;;
21488;SDS011;10906;45.194;5.684;2022-08-05T12:57:01;9.00;;;3.15;;
21488;SDS011;10906;45.194;5.684;2022-08-05T12:59:50;4.95;;;2.67;;
21488;SDS011;10906;45.194;5.684;2022-08-05T13:02:36;9.60;;;3.17;;
21488;SDS011;10906;45.194;5.684;2022-08-05T13:05:22;3.10;;;2.80;;
21488;SDS011;10906;45.194;5.684;2022-08-05T13:08:07;4.38;;;3.05;;
21488;SDS011;10906;45.194;5.684;2022-08-05T13:10:57;4.40;;;3.10;;
21488;SDS011;10906;45.194;5.684;2022-08-05T13:13:42;4.25;;;2.85;;
21488;SDS011;10906;45.194;5.684;2022-08-05T13:16:26;3.63;;;2.95;;
21488;SDS011;10906;45.194;5.684;2022-08-05T13:19:11;7.00;;;3.03;;
21488;SDS011;10906;45.194;5.684;2022-08-05T13:21:56;3.55;;;2.90;;
21488;SDS011;10906;45.194;5.684;2022-08-05T13:24:40;6.82;;;3.40;;
21488;SDS011;10906;45.194;5.684;2022-08-05T13:27:25;5.75;;;2.90;;
21488;SDS011;10906;45.194;5.684;2022-08-05T13:30:17;3.75;;;3.05;;
21488;SDS011;10906;45.194;5.684;2022-08-05T13:33:04;5.65;;;2.85;;
21488;SDS011;10906;45.194;5.684;2022-08-05T13:35:48;4.35;;;2.83;;
21488;SDS011;10906;45.194;5.684;2022-08-05T13:38:32;4.32;;;2.80;;
21488;SDS011;10906;45.194;5.684;2022-08-05T13:41:16;5.05;;;3.10;;
21488;SDS011;10906;45.194;5.684;2022-08-05T13:44:01;8.43;;;3.00;;
21488;SDS011;10906;45.194;5.684;2022-08-05T13:46:45;4.22;;;2.92;;
21488;SDS011;10906;45.194;5.684;2022-08-05T13:49:30;6.82;;;3.22;;
21488;SDS011;10906;45.194;5.684;2022-08-05T13:52:15;5.93;;;3.30;;
21488;SDS011;10906;45.194;5.684;2022-08-05T13:55:04;3.35;;;3.05;;
21488;SDS011;10906;45.194;5.684;2022-08-05T13:57:48;3.92;;;2.83;;
21488;SDS011;10906;45.194;5.684;2022-08-05T14:00:32;5.38;;;3.13;;
21488;SDS011;10906;45.194;5.684;2022-08-05T14:03:19;4.30;;;3.17;;
21488;SDS011;10906;45.194;5.684;2022-08-05T14:06:03;5.07;;;2.88;;
21488;SDS011;10906;45.194;5.684;2022-08-05T14:08:48;6.78;;;2.50;;
21488;SDS011;10906;45.194;5.684;2022-08-05T14:11:32;5.20;;;3.20;;
21488;SDS011;10906;45.194;5.684;2022-08-05T14:14:16;4.55;;;2.80;;
21488;SDS011;10906;45.194;5.684;2022-08-05T14:17:00;4.60;;;2.80;;
21488;SDS011;10906;45.194;5.684;2022-08-05T14:19:44;4.30;;;3.35;;
21488;SDS011;10906;45.194;5.684;2022-08-05T14:22:29;5.70;;;3.35;;
21488;SDS011;10906;45.194;5.684;2022-08-05T14:25:14;5.97;;;3.00;;
21488;SDS011;10906;45.194;5.684;2022-08-05T14:28:00;3.63;;;3.17;;
21488;SDS011;10906;45.194;5.684;2022-08-05T14:30:44;5.30;;;3.20;;
21488;SDS011;10906;45.194;5.684;2022-08-05T14:33:28;3.58;;;3.00;;
21488;SDS011;10906;45.194;5.684;2022-08-05T14:36:14;6.53;;;3.10;;
21488;SDS011;10906;45.194;5.684;2022-08-05T14:38:58;5.10;;;2.85;;
21488;SDS011;10906;45.194;5.684;2022-08-05T14:41:43;3.97;;;3.25;;
21488;SDS011;10906;45.194;5.684;2022-08-05T14:44:27;8.40;;;3.28;;
21488;SDS011;10906;45.194;5.684;2022-08-05T14:47:12;6.18;;;3.65;;
21488;SDS011;10906;45.194;5.684;2022-08-05T14:49:56;4.68;;;3.35;;
21488;SDS011;10906;45.194;5.684;2022-08-05T14:52:40;6.13;;;3.42;;
21488;SDS011;10906;45.194;5.684;2022-08-05T14:55:25;9.35;;;3.67;;
21488;SDS011;10906;45.194;5.684;2022-08-05T14:58:10;9.23;;;3.80;;
21488;SDS011;10906;45.194;5.684;2022-08-05T15:00:55;5.80;;;3.58;;
21488;SDS011;10906;45.194;5.684;2022-08-05T15:03:39;9.85;;;3.72;;
21488;SDS011;10906;45.194;5.684;2022-08-05T15:06:23;11.18;;;3.92;;
21488;SDS011;10906;45.194;5.684;2022-08-05T15:09:08;6.50;;;4.13;;
21488;SDS011;10906;45.194;5.684;2022-08-05T15:11:53;9.13;;;3.97;;
21488;SDS011;10906;45.194;5.684;2022-08-05T15:14:37;10.63;;;4.20;;
21488;SDS011;10906;45.194;5.684;2022-08-05T15:17:21;12.23;;;4.10;;
21488;SDS011;10906;45.194;5.684;2022-08-05T15:20:05;11.20;;;3.92;;
21488;SDS011;10906;45.194;5.684;2022-08-05T15:22:51;12.88;;;4.30;;
21488;SDS011;10906;45.194;5.684;2022-08-05T15:25:36;6.55;;;4.22;;
21488;SDS011;10906;45.194;5.684;2022-08-05T15:28:21;4.90;;;4.25;;
21488;SDS011;10906;45.194;5.684;2022-08-05T15:31:05;9.68;;;4.45;;
21488;SDS011;10906;45.194;5.684;2022-08-05T15:33:50;11.60;;;4.30;;
21488;SDS011;10906;45.194;5.684;2022-08-05T15:36:34;8.10;;;3.95;;
21488;SDS011;10906;45.194;5.684;2022-08-05T15:39:18;6.60;;;3.90;;
21488;SDS011;10906;45.194;5.684;2022-08-05T15:42:02;8.40;;;4.15;;
21488;SDS011;10906;45.194;5.684;2022-08-05T15:44:47;7.55;;;3.75;;
21488;SDS011;10906;45.194;5.684;2022-08-05T15:47:31;11.23;;;3.90;;
21488;SDS011;10906;45.194;5.684;2022-08-05T15:50:15;7.28;;;3.95;;
21488;SDS011;10906;45.194;5.684;2022-08-05T15:53:00;7.47;;;3.97;;
21488;SDS011;10906;45.194;5.684;2022-08-05T15:55:44;4.32;;;3.70;;
21488;SDS011;10906;45.194;5.684;2022-08-05T15:58:28;4.68;;;3.53;;
21488;SDS011;10906;45.194;5.684;2022-08-05T16:01:13;8.50;;;3.38;;
21488;SDS011;10906;45.194;5.684;2022-08-05T16:03:57;5.05;;;3.40;;
21488;SDS011;10906;45.194;5.684;2022-08-05T16:06:42;6.57;;;3.60;;
21488;SDS011;10906;45.194;5.684;2022-08-05T16:09:27;9.85;;;4.10;;
21488;SDS011;10906;45.194;5.684;2022-08-05T16:12:11;13.60;;;4.10;;
21488;SDS011;10906;45.194;5.684;2022-08-05T16:14:56;10.48;;;3.70;;
21488;SDS011;10906;45.194;5.684;2022-08-05T16:17:40;11.07;;;3.72;;
21488;SDS011;10906;45.194;5.684;2022-08-05T16:20:24;8.55;;;3.85;;
21488;SDS011;10906;45.194;5.684;2022-08-05T16:23:09;9.73;;;3.95;;
21488;SDS011;10906;45.194;5.684;2022-08-05T16:26:05;10.88;;;3.22;;
21488;SDS011;10906;45.194;5.684;2022-08-05T16:28:51;9.93;;;3.65;;
21488;SDS011;10906;45.194;5.684;2022-08-05T16:31:36;11.13;;;3.90;;
21488;SDS011;10906;45.194;5.684;2022-08-05T16:34:21;12.35;;;4.13;;
21488;SDS011;10906;45.194;5.684;2022-08-05T16:37:06;12.60;;;3.95;;
21488;SDS011;10906;45.194;5.684;2022-08-05T16:39:50;10.88;;;3.25;;
21488;SDS011;10906;45.194;5.684;2022-08-05T16:42:34;14.63;;;3.40;;
21488;SDS011;10906;45.194;5.684;2022-08-05T16:45:19;17.25;;;4.00;;
21488;SDS011;10906;45.194;5.684;2022-08-05T16:48:03;13.48;;;3.78;;
21488;SDS011;10906;45.194;5.684;2022-08-05T16:50:48;11.10;;;3.50;;
21488;SDS011;10906;45.194;5.684;2022-08-05T16:53:32;7.05;;;3.35;;
21488;SDS011;10906;45.194;5.684;2022-08-05T16:56:17;8.95;;;3.90;;
21488;SDS011;10906;45.194;5.684;2022-08-05T16:59:01;14.68;;;3.90;;
21488;SDS011;10906;45.194;5.684;2022-08-05T17:01:47;12.38;;;4.15;;
21488;SDS011;10906;45.194;5.684;2022-08-05T17:04:32;12.48;;;4.00;;
21488;SDS011;10906;45.194;5.684;2022-08-05T17:07:17;9.15;;;3.75;;
21488;SDS011;10906;45.194;5.684;2022-08-05T17:10:02;8.30;;;3.88;;
21488;SDS011;10906;45.194;5.684;2022-08-05T17:12:47;10.98;;;4.05;;
21488;SDS011;10906;45.194;5.684;2022-08-05T17:15:32;8.57;;;3.22;;
21488;SDS011;10906;45.194;5.684;2022-08-05T17:18:16;6.82;;;3.88;;
21488;SDS011;10906;45.194;5.684;2022-08-05T17:21:00;10.15;;;4.25;;
21488;SDS011;10906;45.194;5.684;2022-08-05T17:23:44;7.15;;;3.50;;
21488;SDS011;10906;45.194;5.684;2022-08-05T17:26:29;7.68;;;4.32;;
21488;SDS011;10906;45.194;5.684;2022-08-05T17:29:13;6.20;;;3.55;;
21488;SDS011;10906;45.194;5.684;2022-08-05T17:31:57;8.38;;;3.35;;
21488;SDS011;10906;45.194;5.684;2022-08-05T17:34:41;6.82;;;3.40;;
21488;SDS011;10906;45.194;5.684;2022-08-05T17:37:25;6.20;;;3.63;;
21488;SDS011;10906;45.194;5.684;2022-08-05T17:40:11;8.45;;;4.60;;
21488;SDS011;10906;45.194;5.684;2022-08-05T17:42:57;10.40;;;4.82;;
21488;SDS011;10906;45.194;5.684;2022-08-05T17:45:41;18.60;;;5.68;;
21488;SDS011;10906;45.194;5.684;2022-08-05T17:48:25;15.85;;;5.82;;
21488;SDS011;10906;45.194;5.684;2022-08-05T17:51:10;20.83;;;5.82;;
21488;SDS011;10906;45.194;5.684;2022-08-05T17:53:54;20.17;;;6.50;;
21488;SDS011;10906;45.194;5.684;2022-08-05T17:56:39;14.75;;;5.80;;
21488;SDS011;10906;45.194;5.684;2022-08-05T17:59:23;16.90;;;6.10;;
21488;SDS011;10906;45.194;5.684;2022-08-05T18:02:08;19.05;;;6.53;;
21488;SDS011;10906;45.194;5.684;2022-08-05T18:04:52;12.73;;;5.60;;
21488;SDS011;10906;45.194;5.684;2022-08-05T18:07:36;8.90;;;5.28;;
21488;SDS011;10906;45.194;5.684;2022-08-05T18:10:21;9.68;;;4.55;;
21488;SDS011;10906;45.194;5.684;2022-08-05T18:13:05;11.45;;;5.07;;
21488;SDS011;10906;45.194;5.684;2022-08-05T18:15:50;10.27;;;5.93;;
21488;SDS011;10906;45.194;5.684;2022-08-05T18:18:35;18.23;;;6.95;;
21488;SDS011;10906;45.194;5.684;2022-08-05T18:21:19;11.63;;;6.90;;
21488;SDS011;10906;45.194;5.684;2022-08-05T18:24:04;14.50;;;6.55;;
21488;SDS011;10906;45.194;5.684;2022-08-05T18:26:48;12.00;;;6.57;;
21488;SDS011;10906;45.194;5.684;2022-08-05T18:29:33;12.35;;;6.30;;
21488;SDS011;10906;45.194;5.684;2022-08-05T18:32:17;11.68;;;6.07;;
21488;SDS011;10906;45.194;5.684;2022-08-05T18:35:01;10.65;;;6.43;;
21488;SDS011;10906;45.194;5.684;2022-08-05T18:37:45;8.57;;;5.35;;
21488;SDS011;10906;45.194;5.684;2022-08-05T18:40:30;8.43;;;6.78;;
21488;SDS011;10906;45.194;5.684;2022-08-05T18:43:14;10.43;;;5.70;;
21488;SDS011;10906;45.194;5.684;2022-08-05T18:45:59;8.02;;;5.40;;
21488;SDS011;10906;45.194;5.684;2022-08-05T18:48:44;10.65;;;6.30;;
21488;SDS011;10906;45.194;5.684;2022-08-05T18:51:28;12.50;;;5.60;;
21488;SDS011;10906;45.194;5.684;2022-08-05T18:54:31;8.50;;;5.38;;
21488;SDS011;10906;45.194;5.684;2022-08-05T18:57:15;7.18;;;4.88;;
21488;SDS011;10906;45.194;5.684;2022-08-05T19:00:03;6.70;;;5.03;;
21488;SDS011;10906;45.194;5.684;2022-08-05T19:02:48;7.82;;;5.47;;
21488;SDS011;10906;45.194;5.684;2022-08-05T19:05:34;8.82;;;5.30;;
21488;SDS011;10906;45.194;5.684;2022-08-05T19:08:19;6.75;;;5.18;;
21488;SDS011;10906;45.194;5.684;2022-08-05T19:11:04;7.43;;;5.78;;
21488;SDS011;10906;45.194;5.684;2022-08-05T19:13:48;6.15;;;5.20;;
21488;SDS011;10906;45.194;5.684;2022-08-05T19:16:32;9.25;;;5.85;;
21488;SDS011;10906;45.194;5.684;2022-08-05T19:19:17;11.80;;;6.22;;
21488;SDS011;10906;45.194;5.684;2022-08-05T19:22:01;8.90;;;5.43;;
21488;SDS011;10906;45.194;5.684;2022-08-05T19:24:46;6.70;;;4.93;;
21488;SDS011;10906;45.194;5.684;2022-08-05T19:27:30;8.60;;;6.20;;
21488;SDS011;10906;45.194;5.684;2022-08-05T19:30:14;7.57;;;5.15;;
21488;SDS011;10906;45.194;5.684;2022-08-05T19:32:59;8.48;;;5.28;;
21488;SDS011;10906;45.194;5.684;2022-08-05T19:35:43;6.55;;;5.75;;
21488;SDS011;10906;45.194;5.684;2022-08-05T19:38:27;7.40;;;6.35;;
21488;SDS011;10906;45.194;5.684;2022-08-05T19:41:11;11.18;;;6.25;;
21488;SDS011;10906;45.194;5.684;2022-08-05T19:43:56;7.20;;;5.55;;
21488;SDS011;10906;45.194;5.684;2022-08-05T19:46:43;6.20;;;4.90;;
21488;SDS011;10906;45.194;5.684;2022-08-05T19:49:27;6.25;;;4.93;;
21488;SDS011;10906;45.194;5.684;2022-08-05T19:52:12;7.65;;;3.80;;
21488;SDS011;10906;45.194;5.684;2022-08-05T19:54:56;6.07;;;3.97;;
21488;SDS011;10906;45.194;5.684;2022-08-05T19:57:41;5.30;;;3.92;;
21488;SDS011;10906;45.194;5.684;2022-08-05T20:00:25;6.43;;;3.25;;
21488;SDS011;10906;45.194;5.684;2022-08-05T20:03:10;4.55;;;3.10;;
21488;SDS011;10906;45.194;5.684;2022-08-05T20:05:55;5.03;;;3.30;;
21488;SDS011;10906;45.194;5.684;2022-08-05T20:08:40;4.13;;;2.90;;
21488;SDS011;10906;45.194;5.684;2022-08-05T20:11:27;7.75;;;3.13;;
21488;SDS011;10906;45.194;5.684;2022-08-05T20:14:12;4.22;;;2.90;;
21488;SDS011;10906;45.194;5.684;2022-08-05T20:16:56;5.20;;;2.67;;
21488;SDS011;10906;45.194;5.684;2022-08-05T20:19:41;5.18;;;3.42;;
21488;SDS011;10906;45.194;5.684;2022-08-05T20:22:26;4.82;;;2.75;;
21488;SDS011;10906;45.194;5.684;2022-08-05T20:25:11;3.25;;;2.80;;
21488;SDS011;10906;45.194;5.684;2022-08-05T20:27:56;5.03;;;2.80;;
21488;SDS011;10906;45.194;5.684;2022-08-05T20:30:40;5.43;;;3.00;;
21488;SDS011;10906;45.194;5.684;2022-08-05T20:33:24;6.47;;;3.13;;
21488;SDS011;10906;45.194;5.684;2022-08-05T20:36:09;5.00;;;2.72;;
21488;SDS011;10906;45.194;5.684;2022-08-05T20:38:53;3.95;;;2.92;;
21488;SDS011;10906;45.194;5.684;2022-08-05T20:41:38;3.85;;;2.97;;
21488;SDS011;10906;45.194;5.684;2022-08-05T20:44:22;3.33;;;2.92;;
21488;SDS011;10906;45.194;5.684;2022-08-05T20:47:07;3.92;;;2.90;;
21488;SDS011;10906;45.194;5.684;2022-08-05T20:49:51;3.35;;;2.58;;
21488;SDS011;10906;45.194;5.684;2022-08-05T20:52:36;4.50;;;3.13;;
21488;SDS011;10906;45.194;5.684;2022-08-05T20:55:21;5.07;;;3.10;;
21488;SDS011;10906;45.194;5.684;2022-08-05T20:58:06;3.70;;;3.40;;
21488;SDS011;10906;45.194;5.684;2022-08-05T21:00:50;5.80;;;3.53;;
21488;SDS011;10906;45.194;5.684;2022-08-05T21:03:35;4.95;;;3.58;;
21488;SDS011;10906;45.194;5.684;2022-08-05T21:06:20;5.50;;;3.33;;
21488;SDS011;10906;45.194;5.684;2022-08-05T21:09:05;3.92;;;2.85;;
21488;SDS011;10906;45.194;5.684;2022-08-05T21:11:50;4.75;;;3.15;;
21488;SDS011;10906;45.194;5.684;2022-08-05T21:14:35;4.18;;;3.20;;
21488;SDS011;10906;45.194;5.684;2022-08-05T21:17:19;4.60;;;2.92;;
21488;SDS011;10906;45.194;5.684;2022-08-05T21:20:04;5.22;;;3.30;;
21488;SDS011;10906;45.194;5.684;2022-08-05T21:22:48;6.90;;;3.00;;
21488;SDS011;10906;45.194;5.684;2022-08-05T21:25:32;6.45;;;3.58;;
21488;SDS011;10906;45.194;5.684;2022-08-05T21:28:17;5.30;;;3.58;;
21488;SDS011;10906;45.194;5.684;2022-08-05T21:31:01;6.30;;;3.65;;
21488;SDS011;10906;45.194;5.684;2022-08-05T21:33:46;4.60;;;3.05;;
21488;SDS011;10906;45.194;5.684;2022-08-05T21:36:30;5.15;;;3.10;;
21488;SDS011;10906;45.194;5.684;2022-08-05T21:39:15;4.65;;;3.03;;
21488;SDS011;10906;45.194;5.684;2022-08-05T21:42:00;6.20;;;3.50;;
21488;SDS011;10906;45.194;5.684;2022-08-05T21:44:45;4.50;;;2.92;;
21488;SDS011;10906;45.194;5.684;2022-08-05T21:47:30;4.95;;;3.08;;
21488;SDS011;10906;45.194;5.684;2022-08-05T21:50:14;5.97;;;3.10;;
21488;SDS011;10906;45.194;5.684;2022-08-05T21:52:59;4.93;;;3.25;;
21488;SDS011;10906;45.194;5.684;2022-08-05T21:55:43;4.35;;;2.85;;
21488;SDS011;10906;45.194;5.684;2022-08-05T21:58:29;5.90;;;3.22;;
